logo tempoitalia

Diretta Meteo Falls City Brenner Fld, Stati Uniti (USA)lunedì 31 agosto ore 00:53

Mappa
Sereno 27 °C Sereno 24 Ore: T.min 25 T.max 37
Ponente Sud Km/h 16.7 Punto di rugiada: 18 °C Umidità: 57% Visibilità: 10 Km
Il sole sorge alle: 06:49 Il sole tramonta alle: 19:55
31 Agosto 2026 00:53 tempo osservato: Sereno Sereno 27 57 1010 vento: Nord S 16.7
30 Agosto 2026 23:53 tempo osservato: Sereno Sereno 28 54 1010 vento: Nord S 16.7
30 Agosto 2026 22:53 tempo osservato: Sereno Sereno 29 51 1009 vento: Nord S 18.5
30 Agosto 2026 21:53 tempo osservato: Sereno Sereno 29 54 1009 vento: Nord S 13
30 Agosto 2026 20:53 tempo osservato: Sereno Sereno 29 62 1009 vento: Nord S/SE 13
30 Agosto 2026 19:53 tempo osservato: Sereno Sereno 31 58 1008 vento: Nord S/SE 11.1
30 Agosto 2026 18:53 tempo osservato: Sereno Sereno 34 46 1008 vento: Nord S/SE 14.8
30 Agosto 2026 17:53 tempo osservato: Sereno Sereno 36 44 1008 vento: Nord S 14.8
30 Agosto 2026 16:53 tempo osservato: Sereno Sereno 37 39 1008 vento: Nord S 22.2
30 Agosto 2026 15:53 tempo osservato: Sereno Sereno 37 39 1009 vento: Nord S 18.5
30 Agosto 2026 14:53 tempo osservato: Sereno Sereno 35 44 1009 vento: Nord S 18.5
30 Agosto 2026 13:53 tempo osservato: Sereno Sereno 34 46 1010 vento: Nord S 18.5
30 Agosto 2026 12:53 tempo osservato: Sereno Sereno 32 49 1010 vento: Nord S/SO 20.3
30 Agosto 2026 11:53 tempo osservato: Sereno Sereno 32 49 1011 vento: Nord S/SO 11.1
30 Agosto 2026 10:53 tempo osservato: Sereno Sereno 29 51 1010 vento: Nord S/SO 11.1
30 Agosto 2026 09:53 tempo osservato: Sereno Sereno 28 51 1010 vento: Nord S 14.8
30 Agosto 2026 08:53 tempo osservato: Sereno Sereno 27 54 1010 vento: Nord S 14.8
30 Agosto 2026 07:53 tempo osservato: Sereno Sereno 26 57 1010 vento: Nord S 14.8
30 Agosto 2026 06:53 tempo osservato: Sereno Sereno 25 61 1010 vento: Nord S 14.8
30 Agosto 2026 05:53 tempo osservato: Sereno Sereno 26 57 1010 vento: Nord S 20.3
30 Agosto 2026 04:53 tempo osservato: Poco Nuvoloso Poco Nuvoloso 26 57 1010 vento: Nord S 14.8
30 Agosto 2026 03:53 tempo osservato: Sereno Sereno 27 54 1010 vento: Nord S 16.7
30 Agosto 2026 02:53 tempo osservato: Poco Nuvoloso Poco Nuvoloso 27 57 1010 vento: Nord S 14.8
30 Agosto 2026 01:53 tempo osservato: Sereno Sereno 27 57 1010 vento: Nord S 11.1